This is the latest recevied weather packets stored in our database for station/object DB5WY-13. If no packets are shown the sender has not sent any weather packets the latest 10 day(s).
| Time | Temp. | Humidity | Pressure | Rain* | Wind** | Luminosity | Snow |
|---|---|---|---|---|---|---|---|
| 1777908601 | 13.33° C | 85% | 1015.5 hPa | 0.51 mm | - | - | - |
| 1777908001 | 12.78° C | 85% | 1015.7 hPa | 1.02 mm | - | - | - |
| 1777907401 | 12.78° C | 85% | 1015.7 hPa | 1.52 mm | - | - | - |
| 1777906801 | 12.78° C | 85% | 1015.7 hPa | 2.54 mm | - | - | - |
| 1777906201 | 12.22° C | 85% | 1015.8 hPa | 3.05 mm | - | - | - |
| 1777905601 | 11.67° C | 85% | 1015.9 hPa | 2.54 mm | - | - | - |
| 1777905001 | 11.67° C | 84% | 1016.1 hPa | 2.54 mm | - | - | - |
| 1777904401 | 12.22° C | 82% | 1016 hPa | 2.03 mm | - | - | - |
| 1777903801 | 12.22° C | 81% | 1016 hPa | 1.52 mm | - | - | - |
| 1777903201 | 13.33° C | 78% | 1016 hPa | 0.51 mm | - | - | - |
| 1777902601 | 15.56° C | 69% | 1015.6 hPa | 0 mm | - | - | - |
| 1777902001 | 18.89° C | 54% | 1015.6 hPa | 0 mm | - | - | - |
| 1777901401 | 20.56° C | 46% | 1015 hPa | 0 mm | - | - | - |
| 1777900801 | 22.22° C | 43% | 1014.9 hPa | 0 mm | - | - | - |
| 1777900201 | 23.33° C | 41% | 1014.9 hPa | 0 mm | - | - | - |
| 1777899601 | 25° C | 39% | 1014.8 hPa | 0 mm | - | - | - |
| 1777899001 | 26.11° C | 39% | 1014.9 hPa | 0 mm | - | - | - |
| 1777898401 | 25° C | 38% | 1014.9 hPa | 0 mm | - | - | - |
| 1777897801 | 26.67° C | 36% | 1014.9 hPa | 0 mm | - | - | - |
| 1777897201 | 30° C | 33% | 1014.9 hPa | 0 mm | - | - | - |
| 1777896601 | 29.44° C | 34% | 1015 hPa | 0 mm | - | - | - |
| 1777896001 | 30.56° C | 33% | 1015 hPa | 0 mm | - | - | - |
| 1777895401 | 29.44° C | 35% | 1014.9 hPa | 0 mm | - | - | - |
| 1777894801 | 28.89° C | 35% | 1015.4 hPa | 0 mm | - | - | - |
| 1777894201 | 31.11° C | 33% | 1015.4 hPa | 0 mm | - | - | - |
* Rain latest hour (hover to see other rain measurements)
** Current wind speed in m/s (hover to see current wind gust speed)